sensor_id;sensor_type;location;lat;lon;timestamp;pressure;altitude;pressure_sealevel;temperature;humidity
53960;BME280;39866;48.638;-2.020;2023-02-18T00:01:02;102842.81;;;16.26;59.56
53960;BME280;39866;48.638;-2.020;2023-02-18T00:03:32;102843.06;;;16.14;59.48
53960;BME280;39866;48.638;-2.020;2023-02-18T00:05:57;102844.69;;;16.23;59.77
53960;BME280;39866;48.638;-2.020;2023-02-18T00:08:23;102840.00;;;16.32;59.55
53960;BME280;39866;48.638;-2.020;2023-02-18T00:10:48;102846.66;;;16.12;59.98
53960;BME280;39866;48.638;-2.020;2023-02-18T00:13:14;102834.94;;;16.17;60.04
53960;BME280;39866;48.638;-2.020;2023-02-18T00:15:39;102843.16;;;16.08;60.24
53960;BME280;39866;48.638;-2.020;2023-02-18T00:18:05;102845.03;;;16.03;60.29
53960;BME280;39866;48.638;-2.020;2023-02-18T00:20:31;102837.72;;;16.13;60.07
53960;BME280;39866;48.638;-2.020;2023-02-18T00:23:01;102836.66;;;16.21;60.14
53960;BME280;39866;48.638;-2.020;2023-02-18T00:25:26;102838.44;;;16.22;60.12
53960;BME280;39866;48.638;-2.020;2023-02-18T00:27:52;102823.56;;;16.03;59.95
53960;BME280;39866;48.638;-2.020;2023-02-18T00:30:17;102852.22;;;16.02;60.25
53960;BME280;39866;48.638;-2.020;2023-02-18T00:32:43;102844.47;;;15.85;61.24
53960;BME280;39866;48.638;-2.020;2023-02-18T00:35:08;102842.84;;;15.75;62.14
53960;BME280;39866;48.638;-2.020;2023-02-18T00:37:33;102841.81;;;15.82;61.86
53960;BME280;39866;48.638;-2.020;2023-02-18T00:39:59;102804.53;;;15.66;61.89
53960;BME280;39866;48.638;-2.020;2023-02-18T00:42:24;102832.72;;;15.93;61.22
53960;BME280;39866;48.638;-2.020;2023-02-18T00:44:49;102828.66;;;15.67;61.83
53960;BME280;39866;48.638;-2.020;2023-02-18T00:47:15;102827.75;;;15.67;61.74
53960;BME280;39866;48.638;-2.020;2023-02-18T00:49:40;102822.47;;;15.60;62.61
53960;BME280;39866;48.638;-2.020;2023-02-18T00:52:05;102818.75;;;15.72;61.72
53960;BME280;39866;48.638;-2.020;2023-02-18T00:54:31;102817.06;;;15.65;61.72
53960;BME280;39866;48.638;-2.020;2023-02-18T00:56:56;102811.66;;;15.67;62.22
53960;BME280;39866;48.638;-2.020;2023-02-18T00:59:21;102807.06;;;15.73;61.87
53960;BME280;39866;48.638;-2.020;2023-02-18T01:01:47;102815.19;;;15.70;61.94
53960;BME280;39866;48.638;-2.020;2023-02-18T01:04:12;102815.34;;;15.58;61.59
53960;BME280;39866;48.638;-2.020;2023-02-18T01:06:38;102812.53;;;15.69;62.13
53960;BME280;39866;48.638;-2.020;2023-02-18T01:09:04;102809.59;;;15.84;61.67
53960;BME280;39866;48.638;-2.020;2023-02-18T01:11:30;102799.69;;;15.86;61.46
53960;BME280;39866;48.638;-2.020;2023-02-18T01:13:55;102804.09;;;15.90;61.28
53960;BME280;39866;48.638;-2.020;2023-02-18T01:16:21;102799.53;;;15.94;61.30
53960;BME280;39866;48.638;-2.020;2023-02-18T01:18:46;102795.31;;;15.79;61.10
53960;BME280;39866;48.638;-2.020;2023-02-18T01:21:12;102798.91;;;15.79;61.41
53960;BME280;39866;48.638;-2.020;2023-02-18T01:23:38;102803.28;;;15.83;61.48
53960;BME280;39866;48.638;-2.020;2023-02-18T01:26:04;102792.72;;;15.76;61.47
53960;BME280;39866;48.638;-2.020;2023-02-18T01:28:30;102796.16;;;15.82;61.16
53960;BME280;39866;48.638;-2.020;2023-02-18T01:30:55;102785.19;;;15.95;61.01
53960;BME280;39866;48.638;-2.020;2023-02-18T01:33:21;102789.78;;;15.90;60.78
53960;BME280;39866;48.638;-2.020;2023-02-18T01:35:46;102792.28;;;15.99;61.39
53960;BME280;39866;48.638;-2.020;2023-02-18T01:38:11;102790.47;;;15.99;61.01
53960;BME280;39866;48.638;-2.020;2023-02-18T01:40:45;102793.94;;;16.06;60.97
53960;BME280;39866;48.638;-2.020;2023-02-18T01:43:12;102788.09;;;15.82;61.16
53960;BME280;39866;48.638;-2.020;2023-02-18T01:45:58;102792.72;;;15.74;61.39
53960;BME280;39866;48.638;-2.020;2023-02-18T01:48:28;102795.06;;;15.94;60.88
53960;BME280;39866;48.638;-2.020;2023-02-18T01:51:12;102792.69;;;15.77;61.18
53960;BME280;39866;48.638;-2.020;2023-02-18T01:54:02;102792.41;;;15.93;60.49
53960;BME280;39866;48.638;-2.020;2023-02-18T01:56:34;102792.41;;;15.93;60.62
53960;BME280;39866;48.638;-2.020;2023-02-18T01:59:07;102796.38;;;15.70;60.87
53960;BME280;39866;48.638;-2.020;2023-02-18T02:01:34;102793.53;;;15.79;61.24
53960;BME280;39866;48.638;-2.020;2023-02-18T02:04:00;102785.50;;;15.78;60.80
53960;BME280;39866;48.638;-2.020;2023-02-18T02:06:25;102789.16;;;15.74;61.03
53960;BME280;39866;48.638;-2.020;2023-02-18T02:08:55;102780.81;;;15.89;60.67
53960;BME280;39866;48.638;-2.020;2023-02-18T02:11:39;102774.81;;;15.75;60.72
53960;BME280;39866;48.638;-2.020;2023-02-18T02:14:30;102775.88;;;15.66;61.37
53960;BME280;39866;48.638;-2.020;2023-02-18T02:17:10;102781.22;;;15.68;61.02
53960;BME280;39866;48.638;-2.020;2023-02-18T02:25:19;102774.94;;;15.67;61.23
53960;BME280;39866;48.638;-2.020;2023-02-18T02:36:25;102773.53;;;15.45;61.69
53960;BME280;39866;48.638;-2.020;2023-02-18T02:39:02;102767.97;;;15.54;61.71
53960;BME280;39866;48.638;-2.020;2023-02-18T02:44:37;102760.09;;;15.45;61.49
53960;BME280;39866;48.638;-2.020;2023-02-18T02:47:38;102756.06;;;15.73;61.37
53960;BME280;39866;48.638;-2.020;2023-02-18T02:52:40;102754.38;;;15.66;61.13
53960;BME280;39866;48.638;-2.020;2023-02-18T02:55:09;102756.09;;;15.72;60.77
53960;BME280;39866;48.638;-2.020;2023-02-18T03:00:03;102749.00;;;15.66;61.00
53960;BME280;39866;48.638;-2.020;2023-02-18T03:05:24;102746.56;;;15.51;61.07
53960;BME280;39866;48.638;-2.020;2023-02-18T03:10:56;102740.28;;;15.52;61.43
53960;BME280;39866;48.638;-2.020;2023-02-18T03:16:08;102739.13;;;15.68;60.46
53960;BME280;39866;48.638;-2.020;2023-02-18T03:18:50;102729.34;;;15.64;60.85
53960;BME280;39866;48.638;-2.020;2023-02-18T03:21:26;102735.25;;;15.84;60.07
53960;BME280;39866;48.638;-2.020;2023-02-18T03:26:19;102737.38;;;15.64;60.93
53960;BME280;39866;48.638;-2.020;2023-02-18T03:28:48;102731.19;;;15.59;60.82
53960;BME280;39866;48.638;-2.020;2023-02-18T03:31:17;102735.41;;;15.77;60.46
53960;BME280;39866;48.638;-2.020;2023-02-18T03:33:50;102737.34;;;15.69;60.40
53960;BME280;39866;48.638;-2.020;2023-02-18T03:36:18;102734.00;;;15.53;60.84
53960;BME280;39866;48.638;-2.020;2023-02-18T03:41:15;102725.06;;;15.51;61.32
53960;BME280;39866;48.638;-2.020;2023-02-18T03:43:51;102728.06;;;15.35;61.24
53960;BME280;39866;48.638;-2.020;2023-02-18T03:46:16;102736.09;;;15.35;61.26
53960;BME280;39866;48.638;-2.020;2023-02-18T03:48:42;102733.88;;;15.59;60.60
53960;BME280;39866;48.638;-2.020;2023-02-18T03:51:08;102725.28;;;15.39;61.28
53960;BME280;39866;48.638;-2.020;2023-02-18T03:53:33;102728.97;;;15.33;60.99
53960;BME280;39866;48.638;-2.020;2023-02-18T03:55:58;102732.59;;;15.30;61.18
53960;BME280;39866;48.638;-2.020;2023-02-18T03:58:24;102734.31;;;15.34;61.04
53960;BME280;39866;48.638;-2.020;2023-02-18T04:00:49;102732.59;;;15.30;61.43
53960;BME280;39866;48.638;-2.020;2023-02-18T04:03:14;102723.94;;;15.13;61.78
53960;BME280;39866;48.638;-2.020;2023-02-18T04:05:40;102719.56;;;15.07;62.28
53960;BME280;39866;48.638;-2.020;2023-02-18T04:08:05;102720.00;;;15.35;61.64
53960;BME280;39866;48.638;-2.020;2023-02-18T04:10:31;102713.41;;;15.53;61.18
53960;BME280;39866;48.638;-2.020;2023-02-18T04:12:56;102725.03;;;15.54;61.39
53960;BME280;39866;48.638;-2.020;2023-02-18T04:15:21;102719.53;;;15.61;61.02
53960;BME280;39866;48.638;-2.020;2023-02-18T04:17:47;102716.97;;;15.55;61.11
53960;BME280;39866;48.638;-2.020;2023-02-18T04:20:12;102717.91;;;15.53;61.38
53960;BME280;39866;48.638;-2.020;2023-02-18T04:22:37;102720.84;;;15.38;61.85
53960;BME280;39866;48.638;-2.020;2023-02-18T04:25:03;102710.50;;;15.67;61.21
53960;BME280;39866;48.638;-2.020;2023-02-18T04:27:28;102716.69;;;15.72;60.84
53960;BME280;39866;48.638;-2.020;2023-02-18T04:29:54;102716.72;;;15.69;61.14
53960;BME280;39866;48.638;-2.020;2023-02-18T04:32:19;102709.56;;;15.70;60.82
53960;BME280;39866;48.638;-2.020;2023-02-18T04:34:44;102719.28;;;15.77;60.73
53960;BME280;39866;48.638;-2.020;2023-02-18T04:37:10;102717.44;;;15.79;60.54
53960;BME280;39866;48.638;-2.020;2023-02-18T04:39:35;102716.56;;;15.78;60.40
53960;BME280;39866;48.638;-2.020;2023-02-18T04:42:00;102716.88;;;15.58;60.66
53960;BME280;39866;48.638;-2.020;2023-02-18T04:44:26;102706.97;;;15.62;60.88
53960;BME280;39866;48.638;-2.020;2023-02-18T04:46:51;102708.75;;;15.63;60.92
53960;BME280;39866;48.638;-2.020;2023-02-18T04:49:16;102720.44;;;15.59;61.08
53960;BME280;39866;48.638;-2.020;2023-02-18T04:51:42;102710.97;;;15.40;61.75
53960;BME280;39866;48.638;-2.020;2023-02-18T04:54:07;102707.16;;;15.53;61.23
53960;BME280;39866;48.638;-2.020;2023-02-18T04:56:32;102712.75;;;15.41;61.69
53960;BME280;39866;48.638;-2.020;2023-02-18T04:58:58;102716.06;;;15.55;61.45
53960;BME280;39866;48.638;-2.020;2023-02-18T05:01:23;102704.59;;;15.45;61.65
53960;BME280;39866;48.638;-2.020;2023-02-18T05:03:48;102710.97;;;15.40;61.60
53960;BME280;39866;48.638;-2.020;2023-02-18T05:06:14;102709.84;;;15.53;61.53
53960;BME280;39866;48.638;-2.020;2023-02-18T05:08:39;102696.72;;;15.34;61.70
53960;BME280;39866;48.638;-2.020;2023-02-18T05:11:06;102696.31;;;15.08;62.14
53960;BME280;39866;48.638;-2.020;2023-02-18T05:13:32;102698.44;;;15.40;62.07
53960;BME280;39866;48.638;-2.020;2023-02-18T05:15:57;102701.09;;;15.42;61.45
53960;BME280;39866;48.638;-2.020;2023-02-18T05:18:23;102707.13;;;15.54;61.53
53960;BME280;39866;48.638;-2.020;2023-02-18T05:20:48;102699.38;;;15.38;61.57
53960;BME280;39866;48.638;-2.020;2023-02-18T05:23:13;102702.63;;;15.55;61.67
53960;BME280;39866;48.638;-2.020;2023-02-18T05:25:39;102703.59;;;15.52;61.52
53960;BME280;39866;48.638;-2.020;2023-02-18T05:28:04;102708.88;;;15.57;61.52
53960;BME280;39866;48.638;-2.020;2023-02-18T05:30:29;102708.59;;;15.74;61.07
53960;BME280;39866;48.638;-2.020;2023-02-18T05:32:55;102708.63;;;15.72;60.58
53960;BME280;39866;48.638;-2.020;2023-02-18T05:35:20;102707.56;;;15.81;60.80
53960;BME280;39866;48.638;-2.020;2023-02-18T05:37:45;102706.59;;;15.83;60.80
53960;BME280;39866;48.638;-2.020;2023-02-18T05:40:11;102713.03;;;15.75;60.83
53960;BME280;39866;48.638;-2.020;2023-02-18T05:42:36;102702.53;;;15.61;60.91
53960;BME280;39866;48.638;-2.020;2023-02-18T05:45:02;102703.59;;;15.51;60.75
53960;BME280;39866;48.638;-2.020;2023-02-18T05:47:27;102701.59;;;15.65;60.80
53960;BME280;39866;48.638;-2.020;2023-02-18T05:49:53;102705.13;;;15.67;60.84
53960;BME280;39866;48.638;-2.020;2023-02-18T05:52:20;102705.44;;;15.49;60.58
53960;BME280;39866;48.638;-2.020;2023-02-18T05:54:46;102693.81;;;15.48;60.90
53960;BME280;39866;48.638;-2.020;2023-02-18T05:57:13;102699.94;;;15.56;60.93
53960;BME280;39866;48.638;-2.020;2023-02-18T05:59:39;102697.94;;;15.69;60.57
53960;BME280;39866;48.638;-2.020;2023-02-18T06:02:04;102698.91;;;15.65;60.53
53960;BME280;39866;48.638;-2.020;2023-02-18T06:04:30;102691.34;;;15.36;60.86
53960;BME280;39866;48.638;-2.020;2023-02-18T06:06:55;102691.28;;;15.41;60.84
53960;BME280;39866;48.638;-2.020;2023-02-18T06:09:21;102692.25;;;15.36;60.96
53960;BME280;39866;48.638;-2.020;2023-02-18T06:11:46;102696.47;;;15.50;60.75
53960;BME280;39866;48.638;-2.020;2023-02-18T06:14:13;102692.84;;;15.52;60.38
53960;BME280;39866;48.638;-2.020;2023-02-18T06:16:38;102693.66;;;15.57;60.55
53960;BME280;39866;48.638;-2.020;2023-02-18T06:19:03;102696.81;;;15.31;60.90
53960;BME280;39866;48.638;-2.020;2023-02-18T06:21:29;102694.38;;;15.16;61.84
53960;BME280;39866;48.638;-2.020;2023-02-18T06:23:54;102695.38;;;15.09;61.85
53960;BME280;39866;48.638;-2.020;2023-02-18T06:26:20;102684.56;;;15.14;61.73
53960;BME280;39866;48.638;-2.020;2023-02-18T06:28:45;102684.34;;;15.27;61.83
53960;BME280;39866;48.638;-2.020;2023-02-18T06:31:10;102691.56;;;15.22;61.94
53960;BME280;39866;48.638;-2.020;2023-02-18T06:33:36;102694.25;;;15.24;61.55
53960;BME280;39866;48.638;-2.020;2023-02-18T06:36:05;102698.59;;;15.31;61.32
53960;BME280;39866;48.638;-2.020;2023-02-18T06:38:36;102687.13;;;15.21;61.68
53960;BME280;39866;48.638;-2.020;2023-02-18T06:41:02;102688.13;;;15.16;61.82
53960;BME280;39866;48.638;-2.020;2023-02-18T06:43:27;102688.69;;;15.34;61.53
53960;BME280;39866;48.638;-2.020;2023-02-18T06:45:53;102687.84;;;15.32;61.81
53960;BME280;39866;48.638;-2.020;2023-02-18T06:48:18;102682.56;;;15.26;61.80
53960;BME280;39866;48.638;-2.020;2023-02-18T06:50:44;102684.41;;;15.24;61.55
53960;BME280;39866;48.638;-2.020;2023-02-18T06:53:10;102686.88;;;15.36;61.35
53960;BME280;39866;48.638;-2.020;2023-02-18T06:55:36;102687.44;;;15.03;61.87
53960;BME280;39866;48.638;-2.020;2023-02-18T06:58:02;102693.28;;;15.26;61.68
53960;BME280;39866;48.638;-2.020;2023-02-18T07:00:27;102685.53;;;15.11;62.12
53960;BME280;39866;48.638;-2.020;2023-02-18T07:02:52;102691.72;;;15.15;61.63
53960;BME280;39866;48.638;-2.020;2023-02-18T07:05:18;102688.94;;;15.21;61.70
53960;BME280;39866;48.638;-2.020;2023-02-18T07:07:43;102696.16;;;15.17;61.71
53960;BME280;39866;48.638;-2.020;2023-02-18T07:10:09;102688.84;;;15.25;61.42
53960;BME280;39866;48.638;-2.020;2023-02-18T07:12:34;102683.69;;;15.15;61.61
53960;BME280;39866;48.638;-2.020;2023-02-18T07:15:00;102697.81;;;15.24;61.88
53960;BME280;39866;48.638;-2.020;2023-02-18T07:17:25;102710.28;;;15.28;61.87
53960;BME280;39866;48.638;-2.020;2023-02-18T07:19:51;102703.94;;;15.32;61.75
53960;BME280;39866;48.638;-2.020;2023-02-18T07:22:17;102710.03;;;15.42;61.54
53960;BME280;39866;48.638;-2.020;2023-02-18T07:24:42;102705.63;;;15.40;61.14
53960;BME280;39866;48.638;-2.020;2023-02-18T07:27:07;102714.63;;;15.35;61.59
53960;BME280;39866;48.638;-2.020;2023-02-18T07:29:33;102719.91;;;15.40;61.54
53960;BME280;39866;48.638;-2.020;2023-02-18T07:31:58;102722.69;;;15.35;61.24
53960;BME280;39866;48.638;-2.020;2023-02-18T07:34:23;102720.84;;;15.38;61.33
53960;BME280;39866;48.638;-2.020;2023-02-18T07:36:49;102719.66;;;15.03;62.02
53960;BME280;39866;48.638;-2.020;2023-02-18T07:39:14;102727.38;;;15.21;61.92
53960;BME280;39866;48.638;-2.020;2023-02-18T07:41:40;102731.81;;;15.22;61.38
53960;BME280;39866;48.638;-2.020;2023-02-18T07:44:05;102728.34;;;15.19;61.39
53960;BME280;39866;48.638;-2.020;2023-02-18T07:46:30;102734.47;;;15.27;61.45
53960;BME280;39866;48.638;-2.020;2023-02-18T07:48:57;102731.81;;;15.22;61.72
53960;BME280;39866;48.638;-2.020;2023-02-18T07:51:22;102734.25;;;15.38;61.52
53960;BME280;39866;48.638;-2.020;2023-02-18T07:53:47;102738.88;;;15.31;61.67
53960;BME280;39866;48.638;-2.020;2023-02-18T07:56:13;102728.00;;;15.37;61.28
53960;BME280;39866;48.638;-2.020;2023-02-18T07:58:38;102743.19;;;15.40;61.39
53960;BME280;39866;48.638;-2.020;2023-02-18T08:01:09;102749.81;;;15.17;61.20
53960;BME280;39866;48.638;-2.020;2023-02-18T08:03:36;102747.03;;;15.23;61.50
53960;BME280;39866;48.638;-2.020;2023-02-18T08:06:02;102747.59;;;15.44;61.12
53960;BME280;39866;48.638;-2.020;2023-02-18T08:08:30;102743.44;;;15.24;61.63
53960;BME280;39866;48.638;-2.020;2023-02-18T08:10:59;102745.16;;;15.28;61.44
53960;BME280;39866;48.638;-2.020;2023-02-18T08:13:28;102743.31;;;15.32;61.52
53960;BME280;39866;48.638;-2.020;2023-02-18T08:15:55;102732.41;;;15.41;61.00
53960;BME280;39866;48.638;-2.020;2023-02-18T08:18:22;102740.22;;;15.56;60.56
53960;BME280;39866;48.638;-2.020;2023-02-18T08:20:48;102747.88;;;15.27;61.17
53960;BME280;39866;48.638;-2.020;2023-02-18T08:23:17;102745.13;;;15.31;60.91
53960;BME280;39866;48.638;-2.020;2023-02-18T08:25:47;102742.50;;;15.27;60.78
53960;BME280;39866;48.638;-2.020;2023-02-18T08:28:13;102755.00;;;15.26;60.97
53960;BME280;39866;48.638;-2.020;2023-02-18T08:30:43;102751.41;;;15.29;60.91
53960;BME280;39866;48.638;-2.020;2023-02-18T08:33:09;102749.91;;;15.11;61.42
53960;BME280;39866;48.638;-2.020;2023-02-18T08:35:34;102754.22;;;15.21;61.13
53960;BME280;39866;48.638;-2.020;2023-02-18T08:37:59;102755.94;;;15.25;60.78
53960;BME280;39866;48.638;-2.020;2023-02-18T08:40:25;102756.81;;;15.27;61.05
53960;BME280;39866;48.638;-2.020;2023-02-18T08:42:50;102747.13;;;15.19;60.94
53960;BME280;39866;48.638;-2.020;2023-02-18T08:45:15;102754.13;;;15.27;60.96
53960;BME280;39866;48.638;-2.020;2023-02-18T08:47:41;102755.13;;;15.20;61.15
53960;BME280;39866;48.638;-2.020;2023-02-18T08:50:06;102756.19;;;15.10;61.23
53960;BME280;39866;48.638;-2.020;2023-02-18T08:52:32;102759.63;;;15.18;61.04
53960;BME280;39866;48.638;-2.020;2023-02-18T08:54:57;102752.38;;;15.25;61.13
53960;BME280;39866;48.638;-2.020;2023-02-18T08:57:22;102765.31;;;15.54;60.80
53960;BME280;39866;48.638;-2.020;2023-02-18T08:59:48;102762.53;;;15.60;59.90
53960;BME280;39866;48.638;-2.020;2023-02-18T09:02:13;102748.56;;;15.40;59.98
53960;BME280;39866;48.638;-2.020;2023-02-18T09:04:39;102753.84;;;15.43;59.69
53960;BME280;39866;48.638;-2.020;2023-02-18T09:07:04;102760.91;;;15.50;60.04
53960;BME280;39866;48.638;-2.020;2023-02-18T09:09:30;102754.38;;;15.63;60.02
53960;BME280;39866;48.638;-2.020;2023-02-18T09:11:56;102745.44;;;15.63;60.09
53960;BME280;39866;48.638;-2.020;2023-02-18T09:14:21;102739.19;;;15.62;59.53
53960;BME280;39866;48.638;-2.020;2023-02-18T09:16:46;102751.41;;;15.81;59.58
53960;BME280;39866;48.638;-2.020;2023-02-18T09:19:12;102751.41;;;15.81;59.31
53960;BME280;39866;48.638;-2.020;2023-02-18T09:21:37;102733.34;;;15.40;59.23
53960;BME280;39866;48.638;-2.020;2023-02-18T09:24:02;102743.75;;;15.58;59.64
53960;BME280;39866;48.638;-2.020;2023-02-18T09:26:28;102751.06;;;15.49;59.42
53960;BME280;39866;48.638;-2.020;2023-02-18T09:28:55;102757.19;;;15.57;59.74
53960;BME280;39866;48.638;-2.020;2023-02-18T09:31:24;102756.38;;;15.53;59.74
53960;BME280;39866;48.638;-2.020;2023-02-18T09:33:58;102759.53;;;15.80;59.10
53960;BME280;39866;48.638;-2.020;2023-02-18T09:36:24;102757.63;;;15.83;58.90
53960;BME280;39866;48.638;-2.020;2023-02-18T09:38:50;102746.22;;;15.72;58.95
53960;BME280;39866;48.638;-2.020;2023-02-18T09:41:29;102758.59;;;15.79;58.74
53960;BME280;39866;48.638;-2.020;2023-02-18T09:44:04;102757.75;;;15.77;58.63
53960;BME280;39866;48.638;-2.020;2023-02-18T09:46:51;102756.97;;;15.71;58.79
53960;BME280;39866;48.638;-2.020;2023-02-18T09:49:21;102757.81;;;15.76;58.79
53960;BME280;39866;48.638;-2.020;2023-02-18T09:51:48;102754.38;;;15.68;58.86
53960;BME280;39866;48.638;-2.020;2023-02-18T09:54:16;102752.56;;;15.67;59.29
53960;BME280;39866;48.638;-2.020;2023-02-18T09:56:43;102751.47;;;15.78;58.92
53960;BME280;39866;48.638;-2.020;2023-02-18T09:59:21;102752.63;;;15.62;59.40
53960;BME280;39866;48.638;-2.020;2023-02-18T10:01:49;102745.34;;;15.72;59.63
53960;BME280;39866;48.638;-2.020;2023-02-18T10:04:40;102752.56;;;15.67;59.64
53960;BME280;39866;48.638;-2.020;2023-02-18T10:07:18;102749.16;;;15.57;59.66
53960;BME280;39866;48.638;-2.020;2023-02-18T10:09:47;102761.34;;;15.78;59.53
53960;BME280;39866;48.638;-2.020;2023-02-18T10:12:16;102752.28;;;15.29;61.04
53960;BME280;39866;48.638;-2.020;2023-02-18T10:14:46;102753.94;;;15.40;60.98
53960;BME280;39866;48.638;-2.020;2023-02-18T10:17:15;102760.91;;;15.50;60.27
53960;BME280;39866;48.638;-2.020;2023-02-18T10:19:42;102752.56;;;15.68;60.02
53960;BME280;39866;48.638;-2.020;2023-02-18T10:22:11;102758.00;;;15.64;60.23
53960;BME280;39866;48.638;-2.020;2023-02-18T10:24:43;102751.59;;;15.72;60.25
53960;BME280;39866;48.638;-2.020;2023-02-18T10:27:17;102759.19;;;15.97;60.03
53960;BME280;39866;48.638;-2.020;2023-02-18T10:29:43;102761.69;;;16.06;59.56
53960;BME280;39866;48.638;-2.020;2023-02-18T10:32:18;102761.91;;;15.95;59.29
53960;BME280;39866;48.638;-2.020;2023-02-18T10:35:03;102761.38;;;15.76;59.49
53960;BME280;39866;48.638;-2.020;2023-02-18T10:37:45;102763.75;;;15.92;59.33
53960;BME280;39866;48.638;-2.020;2023-02-18T10:50:40;102778.22;;;15.30;60.54
53960;BME280;39866;48.638;-2.020;2023-02-18T10:53:32;102777.13;;;15.42;60.01
53960;BME280;39866;48.638;-2.020;2023-02-18T10:55:58;102768.69;;;15.67;59.84
53960;BME280;39866;48.638;-2.020;2023-02-18T10:58:42;102778.06;;;15.94;59.11
53960;BME280;39866;48.638;-2.020;2023-02-18T11:01:14;102775.97;;;16.08;58.38
53960;BME280;39866;48.638;-2.020;2023-02-18T11:03:44;102776.69;;;16.18;58.41
53960;BME280;39866;48.638;-2.020;2023-02-18T11:06:39;102778.00;;;16.42;57.85
53960;BME280;39866;48.638;-2.020;2023-02-18T11:09:06;102774.16;;;16.10;57.55
53960;BME280;39866;48.638;-2.020;2023-02-18T11:11:38;102787.03;;;15.93;57.89
53960;BME280;39866;48.638;-2.020;2023-02-18T11:14:06;102783.09;;;16.10;57.86
53960;BME280;39866;48.638;-2.020;2023-02-18T11:16:40;102771.41;;;16.13;57.74
53960;BME280;39866;48.638;-2.020;2023-02-18T11:19:36;102779.53;;;16.10;58.05
53960;BME280;39866;48.638;-2.020;2023-02-18T11:22:13;102777.03;;;16.01;58.07
53960;BME280;39866;48.638;-2.020;2023-02-18T11:24:40;102775.31;;;15.95;57.65
53960;BME280;39866;48.638;-2.020;2023-02-18T11:27:21;102772.03;;;15.81;58.41
53960;BME280;39866;48.638;-2.020;2023-02-18T11:29:51;102776.66;;;16.21;57.69
53960;BME280;39866;48.638;-2.020;2023-02-18T11:32:18;102777.19;;;16.37;57.60
53960;BME280;39866;48.638;-2.020;2023-02-18T11:34:44;102778.06;;;16.39;57.01
53960;BME280;39866;48.638;-2.020;2023-02-18T11:37:12;102782.41;;;16.44;56.85
53960;BME280;39866;48.638;-2.020;2023-02-18T11:39:43;102777.03;;;16.46;56.90
53960;BME280;39866;48.638;-2.020;2023-02-18T11:42:13;102776.34;;;16.34;56.88
53960;BME280;39866;48.638;-2.020;2023-02-18T11:49:43;102768.44;;;16.70;56.36
53960;BME280;39866;48.638;-2.020;2023-02-18T11:52:44;102771.66;;;16.44;56.38
53960;BME280;39866;48.638;-2.020;2023-02-18T11:55:24;102746.31;;;16.57;56.18
53960;BME280;39866;48.638;-2.020;2023-02-18T12:00:41;102769.31;;;16.29;57.05
53960;BME280;39866;48.638;-2.020;2023-02-18T12:03:16;102756.53;;;15.95;57.82
53960;BME280;39866;48.638;-2.020;2023-02-18T12:05:43;102757.00;;;16.16;57.70
53960;BME280;39866;48.638;-2.020;2023-02-18T12:08:17;102764.97;;;16.20;57.42
53960;BME280;39866;48.638;-2.020;2023-02-18T12:10:49;102766.44;;;16.37;57.35
53960;BME280;39866;48.638;-2.020;2023-02-18T12:13:25;102763.06;;;16.27;58.16
53960;BME280;39866;48.638;-2.020;2023-02-18T12:21:45;102760.13;;;16.39;57.86
53960;BME280;39866;48.638;-2.020;2023-02-18T12:32:04;102743.19;;;15.91;58.89
53960;BME280;39866;48.638;-2.020;2023-02-18T12:34:55;102737.38;;;16.12;58.78
53960;BME280;39866;48.638;-2.020;2023-02-18T12:43:29;102724.81;;;16.14;57.90
53960;BME280;39866;48.638;-2.020;2023-02-18T12:48:48;102722.88;;;16.61;56.84
53960;BME280;39866;48.638;-2.020;2023-02-18T12:54:50;102711.34;;;16.57;56.48
53960;BME280;39866;48.638;-2.020;2023-02-18T13:00:40;102706.94;;;16.13;57.47
53960;BME280;39866;48.638;-2.020;2023-02-18T13:03:26;102706.25;;;16.02;57.75
53960;BME280;39866;48.638;-2.020;2023-02-18T13:06:45;102701.09;;;16.34;57.18
53960;BME280;39866;48.638;-2.020;2023-02-18T13:09:23;102687.97;;;16.59;56.73
53960;BME280;39866;48.638;-2.020;2023-02-18T13:14:30;102694.22;;;16.60;55.98
53960;BME280;39866;48.638;-2.020;2023-02-18T13:16:59;102691.09;;;16.40;56.13
53960;BME280;39866;48.638;-2.020;2023-02-18T13:21:59;102687.66;;;16.75;56.11
53960;BME280;39866;48.638;-2.020;2023-02-18T13:24:37;102681.13;;;16.85;55.82
53960;BME280;39866;48.638;-2.020;2023-02-18T13:27:15;102684.47;;;16.57;56.75
53960;BME280;39866;48.638;-2.020;2023-02-18T13:32:28;102655.22;;;16.42;56.57
53960;BME280;39866;48.638;-2.020;2023-02-18T13:35:16;102676.16;;;16.67;56.57
53960;BME280;39866;48.638;-2.020;2023-02-18T13:40:30;102672.75;;;16.99;55.98
53960;BME280;39866;48.638;-2.020;2023-02-18T13:46:17;102673.88;;;16.89;56.02
53960;BME280;39866;48.638;-2.020;2023-02-18T13:49:06;102665.72;;;16.92;56.36
53960;BME280;39866;48.638;-2.020;2023-02-18T13:51:39;102668.03;;;16.68;56.57
53960;BME280;39866;48.638;-2.020;2023-02-18T13:56:34;102654.19;;;16.87;56.47
53960;BME280;39866;48.638;-2.020;2023-02-18T13:59:09;102663.88;;;16.94;56.03
53960;BME280;39866;48.638;-2.020;2023-02-18T14:01:40;102660.53;;;16.84;56.29
53960;BME280;39866;48.638;-2.020;2023-02-18T14:07:24;102635.78;;;17.05;56.18
53960;BME280;39866;48.638;-2.020;2023-02-18T14:09:52;102639.75;;;16.91;56.16
53960;BME280;39866;48.638;-2.020;2023-02-18T14:14:50;102629.56;;;17.03;55.60
53960;BME280;39866;48.638;-2.020;2023-02-18T14:27:41;102624.75;;;16.80;56.16
53960;BME280;39866;48.638;-2.020;2023-02-18T14:30:18;102616.44;;;16.90;55.81
53960;BME280;39866;48.638;-2.020;2023-02-18T14:32:44;102627.56;;;17.10;55.48
53960;BME280;39866;48.638;-2.020;2023-02-18T14:38:04;102615.66;;;17.20;55.08
53960;BME280;39866;48.638;-2.020;2023-02-18T14:40:51;102614.13;;;17.10;55.08
53960;BME280;39866;48.638;-2.020;2023-02-18T14:46:39;102612.41;;;17.07;56.02
53960;BME280;39866;48.638;-2.020;2023-02-18T14:51:58;102608.28;;;16.93;56.41
53960;BME280;39866;48.638;-2.020;2023-02-18T14:54:25;102623.38;;;16.63;56.97